Airfield :
LOGIN :

Register | Disclaimer

   EN    FR    IT 

 










Legend :    VFR   Marginal VFR   IFR   Intensive IFR   Very Intensive IFR
Visi :
Ceiling :
>= 8 km
>= 3000ft
5 to 8 km
1000 to 3000 ft
1500m to 5 km
500 to 1000 ft
800 to 1500m
200 to 500 ft
< 800m
< 200 ft
Symbols :   Thunderstorms  Fog  Heavy snow  Heavy precipitations  Wind > 20 kt
SIGMETs :     Misc.  Thunderstorms  Icing  Turbulence  Mountain Waves  Volcanic Ashes






- Airport Elevation : 7 ft
- IATA code : VCE


LIPZ - Marco Polo Int. Venezia

CURRENT METAR :
  • 210750Z VRB02KT 2000 1400N PRFG BR OVC007 10/09 Q1012 NOSIG

EXPIRED METARs :
  • 210720Z VRB02KT 1500 PRFG BR OVC007 09/09 Q1012 NOSIG
  • 210650Z VRB02KT 1400 R04R/P1500N PRFG BR OVC008 09/09 Q1012 NOSIG
  • 210620Z 25002KT 1300 1000N R04R/P1500N PRFG BR OVC008 09/09 Q1012 NOSIG
  • 210550Z VRB01KT 1300 R04R/P1500N BCFG BKN004 09/09 Q1012 NOSIG
  • 210520Z VRB01KT 0800 R04R/P1500N FG BKN004 09/09 Q1012 NOSIG

TAF TAF LIPZ
Valid from the 21 at 06:00 until the 22 at 12:00 UTC


210500Z 2106/2212 VRB05KT 0500 FG BKN003
BECMG 2106/2108 2000 BR
BECMG 2108/2110 6000 SCT020
TEMPO 2112/2115 RA
TEMPO 2116/2118 2000 BR



MET'MAP, your aeronautical weather chart ! - Copyright ORBIFLY December 2007 - Disclaimer

ORBIFLY MET'MAP TEAM :

Programming & Development : Alexandra Zaïnal
Concept & Development : Baudouin d'Aumeries
Co-Development & Prog : Marc-Olivier Méhu
Technical & hardware support : Manuel Goepfert

Contact : metmap@orbifly.com




SOURCES & CREDITS :

   NOAA